Time;durP1;ratioP1;P1;durP2;ratioP2;P2;SDS_P1;SDS_P2;PMS_P1;PMS_P2;Temp;Humidity;BMP_temperature;BMP_pressure;BME280_temperature;BME280_humidity;BME280_pressure;Samples;Min_cycle;Max_cycle;Signal;HPM_P1;HPM_P2
2021/12/08 00:01:11;;;;;;;8.55;2.75;;;;;;;0.35;84.06;95333.75;4918971;28;20067;-64
2021/12/08 00:03:38;;;;;;;5.82;3.30;;;;;;;0.33;83.60;95326.00;4932250;29;20073;-63
2021/12/08 00:06:04;;;;;;;11.40;3.35;;;;;;;0.29;83.28;95311.63;4931037;28;20070;-61
2021/12/08 00:08:32;;;;;;;5.35;3.38;;;;;;;0.38;83.15;95301.53;4933211;28;20182;-66
2021/12/08 00:13:32;;;;;;;5.47;3.30;;;;;;;0.27;83.20;95305.00;4932190;28;20399;-63
2021/12/08 00:16:00;;;;;;;7.03;2.78;;;;;;;0.24;84.46;95303.00;4926596;29;20035;-66
2021/12/08 00:18:29;;;;;;;5.32;3.25;;;;;;;-0.02;85.31;95304.84;4925977;28;20039;-66
2021/12/08 00:20:57;;;;;;;7.25;3.40;;;;;;;-0.51;90.81;95306.56;4924187;28;20047;-65
2021/12/08 00:23:24;;;;;;;5.85;3.20;;;;;;;-0.55;91.44;95300.25;4927561;28;20067;-65
2021/12/08 00:25:51;;;;;;;7.53;3.58;;;;;;;-0.50;91.71;95292.78;4932627;28;20043;-65
2021/12/08 00:28:16;;;;;;;8.48;3.47;;;;;;;-0.51;91.59;95285.03;4928241;28;20135;-66
2021/12/08 00:30:48;;;;;;;7.75;3.60;;;;;;;-0.51;91.64;95285.03;4934361;28;20138;-64
2021/12/08 00:33:14;;;;;;;5.97;3.42;;;;;;;-0.81;94.08;95274.34;4924553;28;20041;-64
2021/12/08 00:35:45;;;;;;;10.43;3.58;;;;;;;-1.07;95.59;95263.81;4927973;28;20158;-67
2021/12/08 00:38:12;;;;;;;6.40;3.50;;;;;;;-1.04;95.65;95282.75;4918358;28;20043;-65
2021/12/08 00:40:37;;;;;;;5.82;3.30;;;;;;;-0.81;95.46;95285.09;4928387;29;20542;-65
2021/12/08 00:43:05;;;;;;;6.90;3.13;;;;;;;-0.53;93.90;95292.66;4929967;28;20233;-60
2021/12/08 00:45:31;;;;;;;9.38;3.30;;;;;;;-0.44;93.37;95283.38;4932631;28;20047;-63
2021/12/08 00:47:57;;;;;;;6.80;3.17;;;;;;;-0.22;91.36;95286.81;4933561;28;20039;-65
2021/12/08 00:50:27;;;;;;;7.18;2.72;;;;;;;-0.18;91.14;95274.28;4918053;28;20496;-62
2021/12/08 00:52:52;;;;;;;;;;;;;;;-0.32;90.12;95279.97;4925572;28;20146;-64
2021/12/08 00:55:19;;;;;;;4.35;2.78;;;;;;;-0.35;90.57;95283.31;4922286;28;20379;-62
2021/12/08 00:57:45;;;;;;;6.85;3.17;;;;;;;-0.18;91.09;95286.94;4929632;29;20055;-64
2021/12/08 01:00:24;;;;;;;4.10;2.90;;;;;;;-0.26;91.79;95283.22;4925214;28;20035;-64
2021/12/08 01:02:50;;;;;;;7.72;3.60;;;;;;;-0.27;90.95;95284.34;4924909;29;20071;-66
2021/12/08 01:05:18;;;;;;;7.50;2.90;;;;;;;-0.34;90.44;95282.19;4916594;29;20067;-63
2021/12/08 01:07:44;;;;;;;4.28;2.92;;;;;;;-0.65;92.94;95279.91;4921026;29;20394;-63
2021/12/08 01:10:14;;;;;;;6.90;3.10;;;;;;;-0.58;92.96;95282.88;4917311;29;20397;-63
2021/12/08 01:12:40;;;;;;;5.93;3.38;;;;;;;-0.59;92.54;95278.63;4923585;29;20162;-63
2021/12/08 01:15:06;;;;;;;4.90;3.00;;;;;;;-0.67;93.48;95282.16;4917417;29;20074;-64
2021/12/08 01:17:32;;;;;;;7.32;3.63;;;;;;;-0.63;94.36;95280.38;4920471;29;20453;-64
2021/12/08 01:20:00;;;;;;;8.80;3.53;;;;;;;-0.64;94.10;95284.97;4921859;28;20143;-64
2021/12/08 01:22:25;;;;;;;8.70;3.72;;;;;;;-0.52;94.07;95291.50;4915641;29;20054;-64
2021/12/08 01:24:51;;;;;;;8.52;4.43;;;;;;;-0.27;93.17;95287.81;4925462;29;20043;-64
2021/12/08 01:27:16;;;;;;;6.05;4.03;;;;;;;-0.10;91.78;95289.56;4919706;28;20500;-64
2021/12/08 01:29:42;;;;;;;5.53;3.47;;;;;;;-0.06;91.90;95285.06;4925801;29;20096;-66
2021/12/08 01:32:07;;;;;;;7.38;3.28;;;;;;;0.07;91.37;95298.56;4934190;28;20044;-66
2021/12/08 01:34:33;;;;;;;9.15;3.90;;;;;;;0.11;91.21;95302.16;4940886;29;20035;-67
2021/12/08 01:36:59;;;;;;;11.05;4.50;;;;;;;0.16;90.65;95300.06;4927909;29;20048;-66
2021/12/08 01:39:24;;;;;;;7.60;4.22;;;;;;;0.19;90.17;95304.75;4920163;28;20181;-66
2021/12/08 01:41:52;;;;;;;4.60;3.30;;;;;;;0.14;90.74;95298.81;4924766;29;20519;-64
2021/12/08 01:47:02;;;;;;;8.52;3.80;;;;;;;0.10;89.94;95293.31;4924796;29;20040;-62
2021/12/08 01:49:28;;;;;;;5.30;3.60;;;;;;;0.11;89.73;95294.06;4921500;29;20063;-66
2021/12/08 01:51:53;;;;;;;6.65;3.58;;;;;;;0.12;89.89;95293.75;4923734;29;20428;-66
2021/12/08 01:54:19;;;;;;;7.10;3.75;;;;;;;0.18;89.38;95297.81;4916438;29;20498;-65
2021/12/08 01:56:44;;;;;;;12.25;3.30;;;;;;;0.17;89.76;95300.84;4926496;29;20035;-65
2021/12/08 01:59:10;;;;;;;6.72;3.45;;;;;;;0.14;90.92;95304.19;4921275;29;20040;-65
2021/12/08 02:01:38;;;;;;;5.30;3.17;;;;;;;0.13;90.83;95294.56;4924137;29;20096;-66
2021/12/08 02:04:06;;;;;;;6.95;3.30;;;;;;;0.19;91.04;95295.91;4920867;28;20055;-61
2021/12/08 02:06:37;;;;;;;6.35;3.75;;;;;;;0.24;90.40;95289.53;4922209;29;20047;-65
2021/12/08 02:09:06;;;;;;;5.80;3.83;;;;;;;0.33;89.35;95288.28;4922187;29;20067;-61
2021/12/08 02:11:32;;;;;;;6.43;3.42;;;;;;;0.26;89.55;95285.38;4918892;28;20044;-64
2021/12/08 02:14:00;;;;;;;6.68;3.15;;;;;;;0.31;88.90;95285.16;4920624;29;20102;-66
2021/12/08 02:16:27;;;;;;;6.37;3.00;;;;;;;0.36;88.88;95281.44;4916765;29;20127;-67
2021/12/08 02:18:54;;;;;;;5.05;3.22;;;;;;;0.36;89.04;95276.06;4924892;29;20388;-65
2021/12/08 02:21:19;;;;;;;6.65;3.40;;;;;;;0.15;89.98;95281.53;4913803;28;20046;-64
2021/12/08 02:23:45;;;;;;;6.97;3.28;;;;;;;0.02;92.07;95274.53;4923573;28;20040;-66
2021/12/08 02:26:10;;;;;;;5.85;3.33;;;;;;;-0.14;94.49;95266.34;4918947;28;20039;-63
2021/12/08 02:28:36;;;;;;;4.80;3.50;;;;;;;-0.20;95.32;95261.16;4923603;29;20040;-65
2021/12/08 02:31:06;;;;;;;6.30;3.30;;;;;;;-0.12;94.83;95258.72;4935736;28;20099;-64
2021/12/08 02:47:18;;;;;;;6.85;3.60;;;;;;;-0.45;94.10;95244.16;4919385;29;20055;-65
2021/12/08 02:49:44;;;;;;;4.43;2.90;;;;;;;-0.64;96.36;95246.56;4923209;29;20202;-64
2021/12/08 02:52:12;;;;;;;7.47;3.75;;;;;;;-0.31;97.21;95240.38;4916312;29;20055;-66
2021/12/08 02:54:44;;;;;;;6.38;3.85;;;;;;;-0.26;95.13;95238.25;4925917;29;20138;-66
2021/12/08 02:57:11;;;;;;;5.68;3.33;;;;;;;0.02;93.52;95237.66;4912872;29;20039;-65
2021/12/08 02:59:37;;;;;;;7.40;3.83;;;;;;;0.03;91.74;95246.53;4924052;28;20047;-64
2021/12/08 03:02:04;;;;;;;8.90;3.40;;;;;;;0.02;90.33;95231.47;4923041;29;20119;-61
2021/12/08 03:04:29;;;;;;;5.72;3.00;;;;;;;-0.04;89.51;95237.09;4932029;29;20497;-64
2021/12/08 03:06:56;;;;;;;7.35;3.83;;;;;;;-0.03;89.27;95235.19;4926029;28;20130;-63
2021/12/08 03:09:21;;;;;;;6.50;3.35;;;;;;;0.10;88.72;95235.97;4919970;29;20036;-64
2021/12/08 03:11:48;;;;;;;5.32;3.13;;;;;;;0.55;86.79;95222.41;4923885;29;20062;-63
2021/12/08 03:14:15;;;;;;;4.75;3.13;;;;;;;0.38;87.73;95236.13;4919899;28;20040;-64
2021/12/08 03:16:45;;;;;;;4.78;3.22;;;;;;;0.57;87.72;95236.31;4922654;29;20397;-64
2021/12/08 03:19:11;;;;;;;5.53;3.03;;;;;;;0.53;87.72;95232.75;4912315;28;20516;-64
2021/12/08 03:21:37;;;;;;;6.22;2.88;;;;;;;0.40;87.51;95235.75;4922141;29;20040;-65
2021/12/08 03:32:11;;;;;;;6.57;2.70;;;;;;;0.34;88.20;95230.63;4920816;29;20035;-65
2021/12/08 03:34:41;;;;;;;4.80;2.78;;;;;;;0.17;90.25;95233.53;4918193;29;20036;-64
2021/12/08 03:37:09;;;;;;;7.25;2.88;;;;;;;-0.30;92.96;95229.28;4919623;29;20075;-65
2021/12/08 03:39:38;;;;;;;6.13;2.60;;;;;;;-0.50;96.45;95236.28;4924570;29;20135;-65
2021/12/08 03:42:04;;;;;;;4.82;2.70;;;;;;;-0.59;96.66;95227.53;4920491;29;20056;-61
2021/12/08 03:44:30;;;;;;;6.47;3.83;;;;;;;-0.45;96.74;95227.22;4920979;29;20138;-65
2021/12/08 03:47:03;;;;;;;6.15;2.80;;;;;;;-0.35;96.48;95229.50;4920599;29;20110;-64
2021/12/08 03:49:30;;;;;;;4.82;2.80;;;;;;;-0.28;96.84;95231.66;4922360;29;20036;-64
2021/12/08 03:52:02;;;;;;;5.25;2.97;;;;;;;-0.16;96.82;95230.88;4925838;29;20071;-63
2021/12/08 03:54:28;;;;;;;4.63;2.75;;;;;;;-0.07;95.75;95224.31;4918968;29;20123;-64
2021/12/08 03:56:53;;;;;;;5.38;3.00;;;;;;;-0.38;97.39;95238.22;4922522;29;20103;-64
2021/12/08 03:59:19;;;;;;;7.32;3.17;;;;;;;-0.21;98.07;95229.97;4915350;29;20036;-63
2021/12/08 04:01:44;;;;;;;5.20;3.03;;;;;;;-0.14;97.32;95231.34;4923614;28;20047;-66
2021/12/08 04:04:11;;;;;;;4.55;2.70;;;;;;;-0.10;98.17;95237.63;4917284;29;20044;-65
2021/12/08 04:06:48;;;;;;;5.55;2.80;;;;;;;-0.05;97.72;95240.13;4922614;29;20047;-66
2021/12/08 04:09:19;;;;;;;4.57;2.63;;;;;;;0.14;97.47;95236.88;4913073;28;20040;-63
2021/12/08 04:11:46;;;;;;;7.68;2.50;;;;;;;-0.01;96.00;95232.94;4919273;29;20039;-66
2021/12/08 04:14:16;;;;;;;5.57;2.65;;;;;;;0.04;96.79;95229.22;4920032;28;20071;-63
2021/12/08 04:17:09;;;;;;;5.03;2.67;;;;;;;-0.20;98.16;95236.94;4925041;29;20048;-63
2021/12/08 04:19:37;;;;;;;4.07;2.80;;;;;;;-0.16;98.47;95244.34;4919777;29;20052;-64
2021/12/08 04:22:20;;;;;;;6.63;3.20;;;;;;;-0.07;100.00;95245.84;4921395;28;20046;-61
2021/12/08 04:24:49;;;;;;;5.32;2.95;;;;;;;0.02;100.00;95243.03;4916628;29;20062;-63
2021/12/08 04:27:19;;;;;;;4.00;2.58;;;;;;;0.16;100.00;95256.16;4915821;28;20531;-63
2021/12/08 04:29:45;;;;;;;6.03;3.25;;;;;;;0.34;100.00;95252.16;4917928;29;20039;-62
2021/12/08 04:32:14;;;;;;;6.20;2.95;;;;;;;0.41;100.00;95235.44;4907103;29;20050;-61
2021/12/08 04:34:45;;;;;;;6.10;3.42;;;;;;;0.46;100.00;95227.13;4923325;29;20489;-61
2021/12/08 04:37:19;;;;;;;9.75;3.63;;;;;;;0.27;100.00;95235.78;4918850;29;20043;-63
2021/12/08 04:40:01;;;;;;;8.43;3.60;;;;;;;0.10;100.00;95226.00;4923175;29;20036;-62
2021/12/08 04:43:07;;;;;;;6.72;3.47;;;;;;;0.11;100.00;95232.16;4917705;29;20063;-62
2021/12/08 04:45:27;;;;;;;6.50;2.90;;;;;;;0.14;100.00;95237.66;4906818;29;20059;-62
2021/12/08 04:48:12;;;;;;;8.73;3.20;;;;;;;0.24;100.00;95233.75;4922063;29;20055;-63
2021/12/08 05:09:26;;;;;;;8.27;4.38;;;;;;;-0.77;100.00;95234.97;4901078;29;20047;-62
2021/12/08 05:11:58;;;;;;;7.00;4.57;;;;;;;-0.87;100.00;95229.97;4916824;29;20399;-63
2021/12/08 05:14:49;;;;;;;8.93;4.88;;;;;;;-0.92;100.00;95238.22;4917158;29;20413;-63
2021/12/08 05:17:22;;;;;;;8.30;4.55;;;;;;;-0.86;100.00;95235.03;4917929;29;20107;-64
2021/12/08 05:19:51;;;;;;;7.85;5.20;;;;;;;-0.99;100.00;95231.50;4923158;29;20039;-63
2021/12/08 05:22:22;;;;;;;7.68;5.28;;;;;;;-1.01;100.00;95224.84;4918291;29;20047;-64
2021/12/08 05:24:53;;;;;;;7.22;4.97;;;;;;;-1.00;100.00;95219.16;4921490;29;20650;-61
2021/12/08 05:27:25;;;;;;;9.07;5.18;;;;;;;-0.97;100.00;95228.47;4913469;29;20063;-65
2021/12/08 05:29:58;;;;;;;7.20;5.18;;;;;;;-1.07;100.00;95216.22;4927811;28;20054;-64
2021/12/08 05:32:23;;;;;;;9.30;5.43;;;;;;;-1.12;100.00;95229.06;4911503;29;20911;-64
2021/12/08 05:34:50;;;;;;;9.55;5.60;;;;;;;-1.08;100.00;95227.28;4922445;29;20051;-64
2021/12/08 05:37:19;;;;;;;12.15;6.10;;;;;;;-1.10;100.00;95229.50;4917331;29;20040;-64
2021/12/08 05:39:45;;;;;;;12.05;5.80;;;;;;;-1.10;100.00;95234.88;4923016;29;20097;-64
2021/12/08 05:42:15;;;;;;;13.98;6.55;;;;;;;-1.15;100.00;95235.88;4917117;29;20067;-63
2021/12/08 05:44:41;;;;;;;9.68;6.57;;;;;;;-1.17;100.00;95232.72;4919709;29;20082;-64
2021/12/08 05:47:14;;;;;;;11.90;6.90;;;;;;;-1.19;100.00;95240.31;4912332;29;20508;-64
2021/12/08 05:49:39;;;;;;;11.25;7.35;;;;;;;-1.18;100.00;95231.94;4926207;29;20107;-64
2021/12/08 05:52:07;;;;;;;13.13;7.53;;;;;;;-1.23;100.00;95229.44;4925612;29;20039;-62
2021/12/08 05:54:35;;;;;;;15.00;7.53;;;;;;;-1.25;100.00;95222.81;4928666;29;20044;-64
2021/12/08 05:57:06;;;;;;;13.75;8.05;;;;;;;-1.26;100.00;95224.75;4929715;28;20115;-64
2021/12/08 05:59:32;;;;;;;15.15;8.98;;;;;;;-1.25;100.00;95223.59;4923264;28;20091;-65
2021/12/08 06:02:10;;;;;;;12.98;7.70;;;;;;;-1.14;100.00;95231.28;4920899;29;20531;-65
2021/12/08 06:04:36;;;;;;;14.15;9.05;;;;;;;-1.17;100.00;95224.66;4919504;29;20055;-64
2021/12/08 06:07:04;;;;;;;13.00;9.13;;;;;;;-1.17;100.00;95214.72;4921445;29;20042;-65
2021/12/08 06:09:30;;;;;;;17.60;8.48;;;;;;;-1.08;100.00;95213.84;4922158;28;20114;-64
2021/12/08 06:11:56;;;;;;;17.95;9.27;;;;;;;-1.19;100.00;95206.19;4923605;29;20060;-64
2021/12/08 06:14:31;;;;;;;76.93;37.88;;;;;;;-1.14;100.00;95201.72;4920798;29;20202;-65
2021/12/08 06:16:56;;;;;;;17.60;9.68;;;;;;;-1.15;100.00;95209.00;4920634;28;20484;-64
2021/12/08 06:19:22;;;;;;;15.18;9.40;;;;;;;-1.12;100.00;95205.66;4920131;29;20055;-66
2021/12/08 06:21:49;;;;;;;18.95;9.68;;;;;;;-1.10;100.00;95206.09;4921611;29;20048;-65
2021/12/08 06:24:16;;;;;;;18.13;10.73;;;;;;;-1.14;100.00;95202.50;4922258;28;20068;-64
2021/12/08 06:26:43;;;;;;;15.82;10.35;;;;;;;-1.13;100.00;95209.47;4934488;28;20047;-64
2021/12/08 06:29:11;;;;;;;16.55;10.95;;;;;;;-1.08;100.00;95200.41;4930700;29;20044;-64
2021/12/08 06:31:38;;;;;;;16.95;10.50;;;;;;;-1.00;100.00;95210.31;4930028;29;20051;-64
2021/12/08 06:34:05;;;;;;;16.25;9.98;;;;;;;-0.90;100.00;95206.44;4923563;29;20023;-62
2021/12/08 06:36:39;;;;;;;19.55;10.60;;;;;;;-0.78;100.00;95211.88;4916843;29;20132;-64
2021/12/08 06:39:11;;;;;;;18.17;11.05;;;;;;;-0.71;100.00;95197.91;4919901;29;20787;-63
2021/12/08 06:41:40;;;;;;;25.50;11.05;;;;;;;-0.82;100.00;95208.28;4925716;29;20422;-64
2021/12/08 06:44:16;;;;;;;22.00;11.73;;;;;;;-0.68;100.00;95216.06;4919507;28;20118;-63
2021/12/08 06:46:42;;;;;;;21.00;11.55;;;;;;;-0.63;100.00;95207.78;4922261;28;20496;-63
2021/12/08 06:49:10;;;;;;;23.80;11.80;;;;;;;-0.70;100.00;95194.88;4919741;28;20120;-63
2021/12/08 06:51:43;;;;;;;20.83;10.15;;;;;;;-0.62;100.00;95201.28;4926563;29;20039;-64
2021/12/08 06:54:17;;;;;;;21.45;10.10;;;;;;;-0.49;100.00;95210.19;4917480;28;20027;-63
2021/12/08 06:56:50;;;;;;;17.02;9.60;;;;;;;-0.36;100.00;95208.31;4916226;29;20539;-64
2021/12/08 06:59:21;;;;;;;15.10;9.20;;;;;;;-0.24;100.00;95200.25;4920063;28;20040;-63
2021/12/08 07:02:03;;;;;;;17.38;9.48;;;;;;;-0.42;100.00;95205.03;4922602;29;20548;-64
2021/12/08 07:04:36;;;;;;;17.02;9.75;;;;;;;-0.46;100.00;95201.44;4922622;28;20055;-63
2021/12/08 07:07:01;;;;;;;16.63;9.25;;;;;;;-0.33;100.00;95208.44;4917880;28;20047;-62
2021/12/08 07:09:42;;;;;;;15.98;9.15;;;;;;;-0.13;100.00;95206.00;4917574;28;20051;-64
2021/12/08 07:12:11;;;;;;;17.35;9.68;;;;;;;-0.10;100.00;95206.13;4917115;29;20040;-64
2021/12/08 07:14:37;;;;;;;15.73;7.75;;;;;;;0.00;100.00;95215.69;4922232;29;20064;-64
2021/12/08 07:17:07;;;;;;;16.15;9.85;;;;;;;-0.11;100.00;95212.63;4923293;28;20032;-61
2021/12/08 07:20:03;;;;;;;15.57;9.20;;;;;;;-0.18;100.00;95204.31;4922848;29;20043;-64
2021/12/08 07:22:27;;;;;;;15.65;9.35;;;;;;;-0.28;100.00;95194.75;4915488;28;20054;-65
2021/12/08 07:24:55;;;;;;;16.70;9.23;;;;;;;-0.33;100.00;95200.34;4923022;29;20111;-64
2021/12/08 07:27:27;;;;;;;17.52;9.80;;;;;;;-0.53;100.00;95199.28;4918516;29;20048;-63
2021/12/08 07:29:54;;;;;;;19.35;11.63;;;;;;;-0.80;100.00;95190.69;4923428;29;20044;-63
2021/12/08 07:32:27;;;;;;;22.42;13.27;;;;;;;-0.83;100.00;95188.69;4917404;29;20122;-62
2021/12/08 07:34:54;;;;;;;24.00;14.75;;;;;;;-0.88;100.00;95186.19;4921540;28;20050;-64
2021/12/08 07:37:25;;;;;;;26.60;14.40;;;;;;;-0.89;100.00;95178.44;4918162;29;20055;-64
2021/12/08 07:40:07;;;;;;;26.95;15.48;;;;;;;-0.95;100.00;95183.25;4923375;29;20152;-63
2021/12/08 07:42:40;;;;;;;29.40;17.00;;;;;;;-0.92;100.00;95195.22;4920278;28;20052;-63
2021/12/08 07:45:11;;;;;;;31.00;18.20;;;;;;;-0.81;100.00;95197.19;4917926;29;20048;-63
2021/12/08 07:47:38;;;;;;;29.30;15.45;;;;;;;-0.68;100.00;95194.56;4923712;29;20489;-62
2021/12/08 07:50:16;;;;;;;28.77;16.85;;;;;;;-0.61;100.00;95200.97;4914674;28;20044;-64
2021/12/08 07:52:44;;;;;;;30.02;16.38;;;;;;;-0.56;100.00;95204.56;4922561;29;20036;-65
2021/12/08 07:55:31;;;;;;;35.75;19.90;;;;;;;-0.50;100.00;95205.94;4915249;28;20043;-64
2021/12/08 07:57:58;;;;;;;32.63;16.75;;;;;;;-0.29;100.00;95200.47;4921105;29;20492;-64
2021/12/08 08:00:53;;;;;;;29.33;13.80;;;;;;;-0.03;100.00;95205.56;4918248;29;20845;-65
2021/12/08 08:03:22;;;;;;;21.50;12.98;;;;;;;0.12;100.00;95198.75;4915292;29;20046;-65
2021/12/08 08:05:52;;;;;;;23.42;13.40;;;;;;;0.16;100.00;95183.47;4922869;28;20055;-67
2021/12/08 08:08:19;;;;;;;23.67;13.10;;;;;;;0.02;100.00;95174.94;4918815;29;20048;-64
2021/12/08 08:10:50;;;;;;;21.77;12.10;;;;;;;-0.02;100.00;95167.56;4918323;28;20031;-63
2021/12/08 08:13:18;;;;;;;20.88;12.25;;;;;;;0.22;100.00;95176.75;4915778;29;20032;-63
2021/12/08 08:15:48;;;;;;;22.60;11.70;;;;;;;0.27;100.00;95183.81;4919927;28;20066;-63
2021/12/08 08:18:18;;;;;;;24.45;11.30;;;;;;;0.47;100.00;95195.56;4915127;29;20036;-64
2021/12/08 08:20:49;;;;;;;17.60;11.50;;;;;;;0.55;100.00;95192.78;4917230;29;20094;-63
2021/12/08 08:23:23;;;;;;;18.52;11.18;;;;;;;0.64;100.00;95194.56;4918132;28;20046;-64
2021/12/08 08:25:51;;;;;;;20.35;10.70;;;;;;;0.72;100.00;95186.38;4917020;29;20401;-64
2021/12/08 08:28:16;;;;;;;27.98;13.55;;;;;;;0.73;100.00;95193.31;4904286;29;20045;-63
2021/12/08 08:30:50;;;;;;;26.65;13.18;;;;;;;0.68;100.00;95180.06;4924118;29;20062;-63
2021/12/08 08:33:17;;;;;;;30.95;14.27;;;;;;;0.49;100.00;95177.19;4915829;29;20044;-66
2021/12/08 08:35:49;;;;;;;27.60;15.50;;;;;;;0.23;100.00;95189.09;4921491;29;20044;-64
2021/12/08 08:38:20;;;;;;;19.05;11.30;;;;;;;0.24;100.00;95174.50;4914607;28;20050;-64
2021/12/08 08:40:50;;;;;;;26.27;13.20;;;;;;;0.11;100.00;95172.94;4922344;28;20043;-64
2021/12/08 08:43:16;;;;;;;17.98;11.88;;;;;;;-0.17;100.00;95170.13;4913442;29;20061;-64
2021/12/08 08:45:53;;;;;;;25.98;13.73;;;;;;;-0.28;100.00;95172.47;4922436;29;20123;-63
2021/12/08 08:48:27;;;;;;;21.58;13.25;;;;;;;-0.21;100.00;95170.78;4917349;28;20053;-62
2021/12/08 08:51:01;;;;;;;22.77;13.32;;;;;;;-0.05;100.00;95152.06;4921421;28;20062;-61
2021/12/08 08:53:34;;;;;;;22.30;13.13;;;;;;;0.06;100.00;95154.34;4915751;29;20047;-63
2021/12/08 08:56:13;;;;;;;27.40;15.90;;;;;;;-0.05;100.00;95165.53;4921477;29;20039;-64
2021/12/08 08:58:45;;;;;;;20.83;13.40;;;;;;;0.11;100.00;95168.34;4928516;29;20052;-63
2021/12/08 09:01:23;;;;;;;19.95;12.73;;;;;;;0.36;100.00;95165.63;4917696;29;20044;-63
2021/12/08 09:03:57;;;;;;;18.33;11.05;;;;;;;0.43;100.00;95157.75;4921912;29;20374;-64
2021/12/08 09:06:28;;;;;;;21.05;12.25;;;;;;;0.44;100.00;95145.88;4915355;29;20676;-64
2021/12/08 09:08:54;;;;;;;23.50;14.45;;;;;;;0.44;100.00;95143.19;4923548;29;20048;-63
2021/12/08 09:11:29;;;;;;;24.25;14.63;;;;;;;0.40;100.00;95168.44;4913402;29;20047;-63
2021/12/08 09:14:15;;;;;;;21.50;12.55;;;;;;;0.48;100.00;95168.31;4918297;29;20086;-63
2021/12/08 09:16:50;;;;;;;26.45;13.50;;;;;;;0.52;100.00;95149.56;4922664;29;20130;-63
2021/12/08 09:19:23;;;;;;;19.67;12.38;;;;;;;0.39;100.00;95156.88;4917897;29;20456;-63
2021/12/08 09:21:58;;;;;;;27.40;19.33;;;;;;;0.26;100.00;95160.72;4925889;29;20130;-63
2021/12/08 09:24:31;;;;;;;22.15;14.10;;;;;;;0.17;100.00;95177.75;4920909;28;20044;-65
2021/12/08 09:26:58;;;;;;;23.33;13.55;;;;;;;0.07;100.00;95170.13;4932470;28;20504;-64
2021/12/08 09:29:29;;;;;;;20.05;12.90;;;;;;;0.15;100.00;95176.53;4927775;28;20047;-65
2021/12/08 09:32:08;;;;;;;21.92;12.63;;;;;;;0.24;100.00;95192.59;4930171;28;20051;-65
2021/12/08 09:34:42;;;;;;;27.30;15.40;;;;;;;0.41;100.00;95189.63;4931966;28;20047;-66
2021/12/08 09:37:12;;;;;;;19.73;13.13;;;;;;;0.55;100.00;95198.16;4924612;28;20040;-65
2021/12/08 09:39:42;;;;;;;18.90;11.82;;;;;;;0.76;100.00;95208.03;4930848;28;20117;-66
2021/12/08 09:42:29;;;;;;;18.75;11.88;;;;;;;0.89;100.00;95209.56;4924920;28;20108;-64
2021/12/08 09:45:01;;;;;;;18.02;11.73;;;;;;;0.75;100.00;95204.53;4931051;28;20412;-65
2021/12/08 09:47:29;;;;;;;22.05;12.45;;;;;;;0.70;100.00;95206.66;4929223;28;20546;-64
2021/12/08 09:49:59;;;;;;;20.08;12.32;;;;;;;0.61;100.00;95211.41;4932089;28;20047;-64
2021/12/08 09:52:27;;;;;;;18.95;11.77;;;;;;;0.73;100.00;95212.16;4921558;29;20725;-67
2021/12/08 09:54:56;;;;;;;16.83;11.30;;;;;;;0.70;100.00;95199.41;4928720;28;20043;-65
2021/12/08 09:57:22;;;;;;;20.30;11.45;;;;;;;0.52;100.00;95206.94;4922142;29;21410;-66
2021/12/08 09:59:47;;;;;;;17.65;11.98;;;;;;;0.56;100.00;95191.66;4933105;29;20075;-63
2021/12/08 10:02:19;;;;;;;20.10;12.02;;;;;;;0.65;100.00;95188.84;4921249;29;20549;-66
2021/12/08 10:04:44;;;;;;;21.02;11.63;;;;;;;0.56;100.00;95175.50;4926388;29;20466;-66
2021/12/08 10:07:10;;;;;;;24.15;11.40;;;;;;;-0.16;100.00;95166.28;4922094;29;20048;-64
2021/12/08 10:09:36;;;;;;;18.63;11.45;;;;;;;0.15;100.00;95169.22;4924589;29;20404;-64
2021/12/08 10:12:03;;;;;;;17.10;10.98;;;;;;;0.23;100.00;95161.38;4927325;29;20285;-65
2021/12/08 10:14:29;;;;;;;23.80;15.05;;;;;;;0.06;100.00;95165.88;4922997;29;20063;-64
2021/12/08 10:16:55;;;;;;;27.17;16.25;;;;;;;-0.26;100.00;95162.91;4927006;29;20063;-63
2021/12/08 10:19:22;;;;;;;129.07;59.05;;;;;;;-0.52;100.00;95159.72;4922565;29;20048;-66
2021/12/08 10:21:48;;;;;;;24.83;15.05;;;;;;;-0.60;100.00;95147.97;4927263;29;20130;-65
2021/12/08 10:24:21;;;;;;;25.83;15.32;;;;;;;-0.63;100.00;95143.22;4921670;29;20083;-64
2021/12/08 10:26:48;;;;;;;29.20;15.48;;;;;;;-0.56;100.00;95138.09;4926441;29;20071;-63
2021/12/08 10:29:14;;;;;;;25.98;15.82;;;;;;;-0.47;100.00;95136.13;4920604;29;20503;-64
2021/12/08 10:31:47;;;;;;;25.98;15.85;;;;;;;-0.41;100.00;95150.91;4924549;29;20112;-66
2021/12/08 10:36:51;;;;;;;25.90;15.70;;;;;;;-0.41;100.00;95142.06;4924954;29;20055;-63
2021/12/08 10:39:36;;;;;;;24.52;15.20;;;;;;;-0.49;100.00;95127.56;4921501;29;20497;-65
2021/12/08 10:42:11;;;;;;;31.13;16.23;;;;;;;-0.61;100.00;95114.91;4928990;29;20078;-65
2021/12/08 10:47:35;;;;;;;34.50;18.58;;;;;;;-0.73;100.00;95089.91;4921195;29;20086;-67
2021/12/08 10:56:02;;;;;;;55.50;29.45;;;;;;;-0.85;100.00;95086.06;4926802;29;20205;-65
2021/12/08 10:58:30;;;;;;;58.57;28.07;;;;;;;-0.85;100.00;95086.06;4918810;29;20051;-65
2021/12/08 11:00:58;;;;;;;49.28;25.55;;;;;;;-0.86;100.00;95076.44;4927761;29;20039;-64
2021/12/08 11:03:29;;;;;;;51.45;24.98;;;;;;;-0.90;100.00;95080.91;4922205;29;20893;-65
2021/12/08 11:05:58;;;;;;;52.65;22.10;;;;;;;-0.86;100.00;95076.44;4926679;29;20047;-67
2021/12/08 11:08:46;;;;;;;34.85;19.98;;;;;;;-0.79;100.00;95095.50;4921073;29;21007;-66
2021/12/08 11:11:22;;;;;;;38.88;18.38;;;;;;;-0.64;100.00;95095.97;4921267;29;20063;-64
2021/12/08 11:13:51;;;;;;;34.22;17.33;;;;;;;-0.45;100.00;95114.25;4921991;29;20051;-64
2021/12/08 11:16:30;;;;;;;41.33;20.83;;;;;;;-0.17;100.00;95124.38;4921084;29;20058;-63
2021/12/08 11:19:09;;;;;;;41.58;22.00;;;;;;;-0.01;100.00;95126.03;4927021;29;20067;-63
2021/12/08 11:21:47;;;;;;;39.47;20.15;;;;;;;-0.05;100.00;95121.69;4929634;29;20121;-63
2021/12/08 11:24:18;;;;;;;30.63;18.50;;;;;;;0.04;100.00;95118.84;4923013;29;20126;-65
2021/12/08 11:26:48;;;;;;;38.85;18.10;;;;;;;0.02;100.00;95121.91;4923181;29;20043;-64
2021/12/08 11:29:15;;;;;;;29.73;16.52;;;;;;;0.10;100.00;95115.63;4917962;29;20126;-65
2021/12/08 11:31:51;;;;;;;29.83;16.45;;;;;;;0.26;100.00;95115.72;4926958;29;20056;-65
2021/12/08 11:34:19;;;;;;;26.15;15.48;;;;;;;0.38;100.00;95120.31;4920666;29;20047;-63
2021/12/08 11:36:49;;;;;;;29.52;15.23;;;;;;;0.46;100.00;95121.28;4928977;29;20043;-65
2021/12/08 11:39:19;;;;;;;20.88;12.50;;;;;;;0.51;100.00;95107.59;4922658;29;20058;-65
2021/12/08 11:41:56;;;;;;;18.10;12.57;;;;;;;0.21;100.00;95101.69;4924720;29;20032;-63
2021/12/08 11:44:25;;;;;;;26.42;16.60;;;;;;;-0.05;100.00;95092.88;4917703;29;20051;-64
2021/12/08 11:46:52;;;;;;;25.90;13.55;;;;;;;-0.29;100.00;95096.34;4925665;29;20047;-65
2021/12/08 11:49:19;;;;;;;27.30;17.55;;;;;;;-0.43;100.00;95093.19;4921350;29;20448;-65
2021/12/08 11:51:44;;;;;;;23.52;13.65;;;;;;;-0.52;100.00;95092.50;4926128;29;20501;-66
2021/12/08 11:54:25;;;;;;;24.00;13.73;;;;;;;-0.51;100.00;95076.03;4919152;29;20067;-61
2021/12/08 11:56:52;;;;;;;23.45;13.65;;;;;;;-0.40;100.00;95055.66;4925641;29;20449;-67
2021/12/08 11:59:17;;;;;;;24.23;13.52;;;;;;;-0.12;100.00;95035.34;4920099;29;20528;-65
2021/12/08 12:01:42;;;;;;;22.02;13.60;;;;;;;0.18;100.00;95033.13;4926163;29;20043;-66
2021/12/08 12:04:10;;;;;;;25.52;14.98;;;;;;;0.36;100.00;95037.16;4921519;29;20047;-65
2021/12/08 12:06:37;;;;;;;24.10;13.52;;;;;;;0.51;100.00;95035.63;4924338;29;20067;-67
2021/12/08 12:09:05;;;;;;;25.10;13.88;;;;;;;0.59;100.00;95028.53;4924082;29;20489;-62
2021/12/08 12:11:31;;;;;;;22.50;12.75;;;;;;;0.66;100.00;95036.81;4925001;29;20050;-66
2021/12/08 12:13:58;;;;;;;25.92;16.02;;;;;;;0.70;100.00;95035.00;4926045;29;20028;-65
2021/12/08 12:16:25;;;;;;;19.80;12.82;;;;;;;0.74;100.00;95035.88;4919343;29;20162;-67
2021/12/08 12:18:55;;;;;;;25.15;16.83;;;;;;;0.81;100.00;95046.09;4922987;29;20040;-65
2021/12/08 12:21:40;;;;;;;20.35;12.77;;;;;;;0.88;100.00;95070.53;4920789;29;20047;-65
2021/12/08 12:24:18;;;;;;;21.58;13.25;;;;;;;0.78;100.00;95059.47;4920410;29;20043;-66
2021/12/08 12:26:46;;;;;;;20.10;13.20;;;;;;;0.63;100.00;95047.47;4924578;29;20055;-65
2021/12/08 12:29:11;;;;;;;21.77;14.25;;;;;;;0.55;100.00;95024.97;4920247;29;20401;-65
2021/12/08 12:31:52;;;;;;;22.60;13.45;;;;;;;0.45;100.00;95010.06;4925547;29;20052;-65
2021/12/08 12:34:27;;;;;;;21.38;13.93;;;;;;;0.59;100.00;95020.44;4912894;29;20043;-64